sensor_id;sensor_type;location;lat;lon;timestamp;pressure;altitude;pressure_sealevel;temperature;humidity
62632;BME280;48703;51.248;-0.546;2022-10-03T00:01:24;102043;;;8.83;83.64
62632;BME280;48703;51.248;-0.546;2022-10-03T00:04:25;102046;;;8.83;83.93
62632;BME280;48703;51.248;-0.546;2022-10-03T00:07:28;102047;;;8.80;83.80
62632;BME280;48703;51.248;-0.546;2022-10-03T00:10:27;102048;;;8.68;83.76
62632;BME280;48703;51.248;-0.546;2022-10-03T00:13:28;102053;;;8.65;83.69
62632;BME280;48703;51.248;-0.546;2022-10-03T00:16:33;102055;;;8.64;83.99
62632;BME280;48703;51.248;-0.546;2022-10-03T00:19:33;102051;;;8.56;83.80
62632;BME280;48703;51.248;-0.546;2022-10-03T00:22:34;102057;;;8.48;83.99
62632;BME280;48703;51.248;-0.546;2022-10-03T00:25:36;102070;;;8.49;84.02
62632;BME280;48703;51.248;-0.546;2022-10-03T00:28:43;102076;;;8.52;84.51
62632;BME280;48703;51.248;-0.546;2022-10-03T00:31:39;102073;;;8.49;83.79
62632;BME280;48703;51.248;-0.546;2022-10-03T00:34:43;102075;;;8.41;84.32
62632;BME280;48703;51.248;-0.546;2022-10-03T00:37:43;102080;;;8.44;84.21
62632;BME280;48703;51.248;-0.546;2022-10-03T00:40:48;102077;;;8.48;84.07
62632;BME280;48703;51.248;-0.546;2022-10-03T00:45:56;102081;;;8.41;84.04
62632;BME280;48703;51.248;-0.546;2022-10-03T00:49:10;102086;;;8.43;84.11
62632;BME280;48703;51.248;-0.546;2022-10-03T00:51:53;102088;;;8.38;83.80
62632;BME280;48703;51.248;-0.546;2022-10-03T00:54:54;102086;;;8.33;84.22
62632;BME280;48703;51.248;-0.546;2022-10-03T00:57:57;102090;;;8.33;84.26
62632;BME280;48703;51.248;-0.546;2022-10-03T01:00:57;102093;;;8.34;84.05
62632;BME280;48703;51.248;-0.546;2022-10-03T01:04:02;102098;;;8.23;83.79
62632;BME280;48703;51.248;-0.546;2022-10-03T01:07:03;102092;;;8.13;84.33
62632;BME280;48703;51.248;-0.546;2022-10-03T01:10:05;102088;;;8.18;84.11
62632;BME280;48703;51.248;-0.546;2022-10-03T01:13:07;102095;;;8.09;84.02
62632;BME280;48703;51.248;-0.546;2022-10-03T01:16:07;102094;;;8.03;84.40
62632;BME280;48703;51.248;-0.546;2022-10-03T01:19:11;102089;;;8.01;84.41
62632;BME280;48703;51.248;-0.546;2022-10-03T01:22:14;102086;;;7.97;84.16
62632;BME280;48703;51.248;-0.546;2022-10-03T01:25:11;102092;;;7.95;84.77
62632;BME280;48703;51.248;-0.546;2022-10-03T01:28:17;102092;;;7.93;84.92
62632;BME280;48703;51.248;-0.546;2022-10-03T01:31:16;102086;;;7.84;84.55
62632;BME280;48703;51.248;-0.546;2022-10-03T01:34:19;102089;;;7.83;84.40
62632;BME280;48703;51.248;-0.546;2022-10-03T01:37:19;102092;;;7.89;85.42
62632;BME280;48703;51.248;-0.546;2022-10-03T01:40:21;102088;;;7.91;85.17
62632;BME280;48703;51.248;-0.546;2022-10-03T01:43:22;102085;;;7.92;84.73
62632;BME280;48703;51.248;-0.546;2022-10-03T01:46:24;102085;;;7.90;84.83
62632;BME280;48703;51.248;-0.546;2022-10-03T01:49:26;102086;;;7.88;84.82
62632;BME280;48703;51.248;-0.546;2022-10-03T01:52:31;102086;;;7.87;85.30
62632;BME280;48703;51.248;-0.546;2022-10-03T01:55:32;102079;;;7.87;84.66
62632;BME280;48703;51.248;-0.546;2022-10-03T01:58:33;102079;;;7.86;84.89
62632;BME280;48703;51.248;-0.546;2022-10-03T02:01:34;102082;;;7.86;85.08
62632;BME280;48703;51.248;-0.546;2022-10-03T02:04:36;102079;;;7.84;84.71
62632;BME280;48703;51.248;-0.546;2022-10-03T02:07:39;102077;;;7.71;84.86
62632;BME280;48703;51.248;-0.546;2022-10-03T02:10:40;102075;;;7.70;85.08
62632;BME280;48703;51.248;-0.546;2022-10-03T02:13:42;102076;;;7.68;85.15
62632;BME280;48703;51.248;-0.546;2022-10-03T02:16:43;102076;;;7.59;84.98
62632;BME280;48703;51.248;-0.546;2022-10-03T02:19:47;102077;;;7.53;85.39
62632;BME280;48703;51.248;-0.546;2022-10-03T02:22:48;102083;;;7.48;85.41
62632;BME280;48703;51.248;-0.546;2022-10-03T02:25:50;102083;;;7.43;85.77
62632;BME280;48703;51.248;-0.546;2022-10-03T02:28:56;102083;;;7.50;85.65
62632;BME280;48703;51.248;-0.546;2022-10-03T02:31:58;102086;;;7.48;85.59
62632;BME280;48703;51.248;-0.546;2022-10-03T02:35:14;102082;;;7.42;85.09
62632;BME280;48703;51.248;-0.546;2022-10-03T02:37:59;102082;;;7.41;85.02
62632;BME280;48703;51.248;-0.546;2022-10-03T02:41:05;102081;;;7.46;85.71
62632;BME280;48703;51.248;-0.546;2022-10-03T02:44:03;102078;;;7.43;85.59
62632;BME280;48703;51.248;-0.546;2022-10-03T02:47:07;102070;;;7.36;85.87
62632;BME280;48703;51.248;-0.546;2022-10-03T02:50:07;102071;;;7.36;85.26
62632;BME280;48703;51.248;-0.546;2022-10-03T02:53:13;102072;;;7.39;85.60
62632;BME280;48703;51.248;-0.546;2022-10-03T02:56:12;102072;;;7.35;85.16
62632;BME280;48703;51.248;-0.546;2022-10-03T02:59:13;102070;;;7.34;85.24
62632;BME280;48703;51.248;-0.546;2022-10-03T03:02:21;102074;;;7.33;85.74
62632;BME280;48703;51.248;-0.546;2022-10-03T03:05:17;102070;;;7.23;85.54
62632;BME280;48703;51.248;-0.546;2022-10-03T03:08:21;102065;;;7.17;85.95
62632;BME280;48703;51.248;-0.546;2022-10-03T03:11:22;102063;;;7.20;85.72
62632;BME280;48703;51.248;-0.546;2022-10-03T03:14:22;102064;;;7.20;85.70
62632;BME280;48703;51.248;-0.546;2022-10-03T03:17:23;102068;;;7.12;85.94
62632;BME280;48703;51.248;-0.546;2022-10-03T03:20:27;102068;;;7.06;86.18
62632;BME280;48703;51.248;-0.546;2022-10-03T03:23:30;102064;;;7.08;86.40
62632;BME280;48703;51.248;-0.546;2022-10-03T03:26:29;102062;;;7.11;86.11
62632;BME280;48703;51.248;-0.546;2022-10-03T03:29:30;102061;;;7.05;85.82
62632;BME280;48703;51.248;-0.546;2022-10-03T03:32:32;102067;;;7.03;85.88
62632;BME280;48703;51.248;-0.546;2022-10-03T03:35:33;102068;;;7.03;86.36
62632;BME280;48703;51.248;-0.546;2022-10-03T03:38:34;102057;;;7.04;86.51
62632;BME280;48703;51.248;-0.546;2022-10-03T03:41:39;102055;;;7.02;86.40
62632;BME280;48703;51.248;-0.546;2022-10-03T03:44:43;102061;;;7.03;86.89
62632;BME280;48703;51.248;-0.546;2022-10-03T03:47:45;102060;;;7.04;86.91
62632;BME280;48703;51.248;-0.546;2022-10-03T03:50:44;102054;;;7.05;86.35
62632;BME280;48703;51.248;-0.546;2022-10-03T03:53:49;102052;;;7.05;86.86
62632;BME280;48703;51.248;-0.546;2022-10-03T03:56:48;102048;;;7.09;86.79
62632;BME280;48703;51.248;-0.546;2022-10-03T03:59:49;102047;;;7.12;87.13
62632;BME280;48703;51.248;-0.546;2022-10-03T04:02:51;102043;;;7.12;86.79
62632;BME280;48703;51.248;-0.546;2022-10-03T04:05:54;102041;;;7.10;87.03
62632;BME280;48703;51.248;-0.546;2022-10-03T04:08:58;102038;;;7.11;87.06
62632;BME280;48703;51.248;-0.546;2022-10-03T04:11:54;102036;;;7.14;87.11
62632;BME280;48703;51.248;-0.546;2022-10-03T04:14:59;102036;;;7.16;87.02
62632;BME280;48703;51.248;-0.546;2022-10-03T04:18:00;102033;;;7.17;87.27
62632;BME280;48703;51.248;-0.546;2022-10-03T04:21:01;102031;;;7.16;87.56
62632;BME280;48703;51.248;-0.546;2022-10-03T04:24:03;102030;;;7.17;87.55
62632;BME280;48703;51.248;-0.546;2022-10-03T04:27:06;102034;;;7.17;87.09
62632;BME280;48703;51.248;-0.546;2022-10-03T04:30:06;102030;;;7.15;87.30
62632;BME280;48703;51.248;-0.546;2022-10-03T04:33:09;102030;;;7.16;87.09
62632;BME280;48703;51.248;-0.546;2022-10-03T04:36:13;102035;;;7.20;87.15
62632;BME280;48703;51.248;-0.546;2022-10-03T04:39:11;102034;;;7.21;87.09
62632;BME280;48703;51.248;-0.546;2022-10-03T04:42:12;102044;;;7.20;87.13
62632;BME280;48703;51.248;-0.546;2022-10-03T04:45:17;102045;;;7.22;87.02
62632;BME280;48703;51.248;-0.546;2022-10-03T04:48:16;102038;;;7.22;87.29
62632;BME280;48703;51.248;-0.546;2022-10-03T04:51:17;102047;;;7.16;87.58
62632;BME280;48703;51.248;-0.546;2022-10-03T04:54:22;102052;;;7.12;87.61
62632;BME280;48703;51.248;-0.546;2022-10-03T04:57:24;102049;;;7.16;87.13
62632;BME280;48703;51.248;-0.546;2022-10-03T05:00:23;102046;;;7.18;86.99
62632;BME280;48703;51.248;-0.546;2022-10-03T05:03:27;102045;;;7.19;87.18
62632;BME280;48703;51.248;-0.546;2022-10-03T05:06:30;102046;;;7.14;87.22
62632;BME280;48703;51.248;-0.546;2022-10-03T05:09:30;102047;;;7.08;87.42
62632;BME280;48703;51.248;-0.546;2022-10-03T05:12:30;102055;;;7.03;87.39
62632;BME280;48703;51.248;-0.546;2022-10-03T05:15:32;102050;;;7.00;87.63
62632;BME280;48703;51.248;-0.546;2022-10-03T05:18:37;102043;;;7.04;86.93
62632;BME280;48703;51.248;-0.546;2022-10-03T05:21:37;102047;;;7.08;87.06
62632;BME280;48703;51.248;-0.546;2022-10-03T05:24:39;102045;;;7.00;87.08
62632;BME280;48703;51.248;-0.546;2022-10-03T05:27:40;102029;;;7.01;86.79
62632;BME280;48703;51.248;-0.546;2022-10-03T05:30:42;102036;;;6.99;87.12
62632;BME280;48703;51.248;-0.546;2022-10-03T05:33:45;102039;;;6.93;87.41
62632;BME280;48703;51.248;-0.546;2022-10-03T05:36:49;102040;;;6.90;87.66
62632;BME280;48703;51.248;-0.546;2022-10-03T05:39:51;102042;;;6.88;87.18
62632;BME280;48703;51.248;-0.546;2022-10-03T05:42:58;102036;;;6.91;87.63
62632;BME280;48703;51.248;-0.546;2022-10-03T05:45:52;102031;;;6.95;87.43
62632;BME280;48703;51.248;-0.546;2022-10-03T05:48:54;102038;;;6.92;87.48
62632;BME280;48703;51.248;-0.546;2022-10-03T05:52:00;102047;;;6.89;87.97
62632;BME280;48703;51.248;-0.546;2022-10-03T05:55:00;102050;;;6.93;87.21
62632;BME280;48703;51.248;-0.546;2022-10-03T05:58:02;102053;;;6.96;87.02
62632;BME280;48703;51.248;-0.546;2022-10-03T06:01:07;102048;;;6.94;87.62
62632;BME280;48703;51.248;-0.546;2022-10-03T06:04:05;102047;;;6.97;87.78
62632;BME280;48703;51.248;-0.546;2022-10-03T06:07:04;102048;;;6.96;87.78
62632;BME280;48703;51.248;-0.546;2022-10-03T06:10:16;102042;;;6.95;87.84
62632;BME280;48703;51.248;-0.546;2022-10-03T06:13:10;102044;;;6.95;87.56
62632;BME280;48703;51.248;-0.546;2022-10-03T06:16:13;102038;;;7.03;87.29
62632;BME280;48703;51.248;-0.546;2022-10-03T06:19:14;102033;;;7.04;87.84
62632;BME280;48703;51.248;-0.546;2022-10-03T06:22:50;102031;;;7.08;87.56
62632;BME280;48703;51.248;-0.546;2022-10-03T06:25:27;102031;;;7.05;87.63
62632;BME280;48703;51.248;-0.546;2022-10-03T06:28:24;102026;;;7.03;88.01
62632;BME280;48703;51.248;-0.546;2022-10-03T06:31:27;102025;;;7.08;87.62
62632;BME280;48703;51.248;-0.546;2022-10-03T06:34:41;102031;;;7.07;88.49
62632;BME280;48703;51.248;-0.546;2022-10-03T06:37:27;102040;;;7.05;88.38
62632;BME280;48703;51.248;-0.546;2022-10-03T06:40:30;102048;;;7.09;88.26
62632;BME280;48703;51.248;-0.546;2022-10-03T06:43:31;102049;;;7.17;87.70
62632;BME280;48703;51.248;-0.546;2022-10-03T06:47:36;102044;;;7.21;87.72
62632;BME280;48703;51.248;-0.546;2022-10-03T06:50:38;102045;;;7.22;88.08
62632;BME280;48703;51.248;-0.546;2022-10-03T06:52:37;102045;;;7.23;88.72
62632;BME280;48703;51.248;-0.546;2022-10-03T06:57:53;102047;;;7.27;88.54
62632;BME280;48703;51.248;-0.546;2022-10-03T06:58:46;102055;;;7.30;88.86
62632;BME280;48703;51.248;-0.546;2022-10-03T07:01:55;102055;;;7.31;88.29
62632;BME280;48703;51.248;-0.546;2022-10-03T07:05:01;102058;;;7.35;88.91
62632;BME280;48703;51.248;-0.546;2022-10-03T07:09:10;102054;;;7.42;88.49
62632;BME280;48703;51.248;-0.546;2022-10-03T07:10:54;102051;;;7.43;87.97
62632;BME280;48703;51.248;-0.546;2022-10-03T07:14:03;102044;;;7.46;88.68
62632;BME280;48703;51.248;-0.546;2022-10-03T07:17:01;102043;;;7.47;88.97
62632;BME280;48703;51.248;-0.546;2022-10-03T07:22:39;102052;;;7.52;88.59
62632;BME280;48703;51.248;-0.546;2022-10-03T07:23:08;102054;;;7.56;88.82
62632;BME280;48703;51.248;-0.546;2022-10-03T07:26:21;102052;;;7.59;88.50
62632;BME280;48703;51.248;-0.546;2022-10-03T07:29:08;102050;;;7.66;87.86
62632;BME280;48703;51.248;-0.546;2022-10-03T07:32:08;102062;;;7.72;88.58
62632;BME280;48703;51.248;-0.546;2022-10-03T07:38:15;102051;;;7.81;88.43
62632;BME280;48703;51.248;-0.546;2022-10-03T07:41:18;102043;;;7.88;88.36
62632;BME280;48703;51.248;-0.546;2022-10-03T07:44:18;102047;;;7.98;88.30
62632;BME280;48703;51.248;-0.546;2022-10-03T07:50:21;102035;;;8.07;88.05
62632;BME280;48703;51.248;-0.546;2022-10-03T07:53:22;102034;;;8.14;89.40
62632;BME280;48703;51.248;-0.546;2022-10-03T07:56:16;102039;;;8.20;89.16
62632;BME280;48703;51.248;-0.546;2022-10-03T07:59:29;102047;;;8.26;88.97
62632;BME280;48703;51.248;-0.546;2022-10-03T08:02:32;102051;;;8.29;88.64
62632;BME280;48703;51.248;-0.546;2022-10-03T08:05:21;102054;;;8.37;89.00
62632;BME280;48703;51.248;-0.546;2022-10-03T08:08:32;102057;;;8.41;88.82
62632;BME280;48703;51.248;-0.546;2022-10-03T08:12:32;102056;;;8.48;88.83
62632;BME280;48703;51.248;-0.546;2022-10-03T08:14:23;102060;;;8.54;89.17
62632;BME280;48703;51.248;-0.546;2022-10-03T08:17:37;102060;;;8.61;88.32
62632;BME280;48703;51.248;-0.546;2022-10-03T08:20:31;102055;;;8.70;88.90
62632;BME280;48703;51.248;-0.546;2022-10-03T08:25:53;102058;;;8.77;89.34
62632;BME280;48703;51.248;-0.546;2022-10-03T08:26:33;102059;;;8.85;89.23
62632;BME280;48703;51.248;-0.546;2022-10-03T08:29:36;102064;;;8.93;89.53
62632;BME280;48703;51.248;-0.546;2022-10-03T08:32:41;102059;;;9.03;89.79
62632;BME280;48703;51.248;-0.546;2022-10-03T08:35:40;102060;;;9.08;88.99
62632;BME280;48703;51.248;-0.546;2022-10-03T08:38:56;102063;;;9.14;88.78
62632;BME280;48703;51.248;-0.546;2022-10-03T08:41:57;102068;;;9.20;89.00
62632;BME280;48703;51.248;-0.546;2022-10-03T08:44:47;102071;;;9.28;89.06
62632;BME280;48703;51.248;-0.546;2022-10-03T08:47:48;102071;;;9.35;88.90
62632;BME280;48703;51.248;-0.546;2022-10-03T08:51:02;102076;;;9.40;88.91
62632;BME280;48703;51.248;-0.546;2022-10-03T08:54:16;102080;;;9.45;88.58
62632;BME280;48703;51.248;-0.546;2022-10-03T08:56:54;102081;;;9.49;88.78
62632;BME280;48703;51.248;-0.546;2022-10-03T09:00:00;102082;;;9.54;88.73
62632;BME280;48703;51.248;-0.546;2022-10-03T09:03:06;102075;;;9.59;88.89
62632;BME280;48703;51.248;-0.546;2022-10-03T09:06:01;102069;;;9.67;88.73
62632;BME280;48703;51.248;-0.546;2022-10-03T09:09:14;102070;;;9.76;88.77
62632;BME280;48703;51.248;-0.546;2022-10-03T09:12:16;102063;;;9.82;88.28
62632;BME280;48703;51.248;-0.546;2022-10-03T09:15:04;102062;;;9.93;89.12
62632;BME280;48703;51.248;-0.546;2022-10-03T09:18:06;102060;;;10.03;88.40
62632;BME280;48703;51.248;-0.546;2022-10-03T09:21:08;102057;;;10.16;88.92
62632;BME280;48703;51.248;-0.546;2022-10-03T09:24:24;102060;;;10.29;88.76
62632;BME280;48703;51.248;-0.546;2022-10-03T09:28:24;102061;;;10.40;88.42
62632;BME280;48703;51.248;-0.546;2022-10-03T09:30:34;102060;;;10.53;88.55
62632;BME280;48703;51.248;-0.546;2022-10-03T09:33:34;102058;;;10.65;88.34
62632;BME280;48703;51.248;-0.546;2022-10-03T09:36:16;102055;;;10.73;88.20
62632;BME280;48703;51.248;-0.546;2022-10-03T09:39:38;102047;;;10.83;88.58
62632;BME280;48703;51.248;-0.546;2022-10-03T09:42:24;102048;;;10.93;87.95
62632;BME280;48703;51.248;-0.546;2022-10-03T09:45:24;102049;;;11.01;87.89
62632;BME280;48703;51.248;-0.546;2022-10-03T09:48:22;102042;;;11.14;87.97
62632;BME280;48703;51.248;-0.546;2022-10-03T09:52:22;102042;;;11.24;88.27
62632;BME280;48703;51.248;-0.546;2022-10-03T09:55:27;102040;;;11.38;88.06
62632;BME280;48703;51.248;-0.546;2022-10-03T09:58:30;102032;;;11.51;87.88
62632;BME280;48703;51.248;-0.546;2022-10-03T10:01:28;102031;;;11.63;88.13
62632;BME280;48703;51.248;-0.546;2022-10-03T10:04:50;102034;;;11.74;87.51
62632;BME280;48703;51.248;-0.546;2022-10-03T10:07:38;102034;;;11.87;87.60
62632;BME280;48703;51.248;-0.546;2022-10-03T10:09:46;102032;;;11.95;87.02
62632;BME280;48703;51.248;-0.546;2022-10-03T10:12:39;102031;;;12.07;87.38
62632;BME280;48703;51.248;-0.546;2022-10-03T10:15:42;102030;;;12.17;87.12
62632;BME280;48703;51.248;-0.546;2022-10-03T10:21:48;102032;;;12.33;86.85
62632;BME280;48703;51.248;-0.546;2022-10-03T10:23:45;102028;;;12.44;87.23
62632;BME280;48703;51.248;-0.546;2022-10-03T10:31:01;102033;;;12.67;86.44
62632;BME280;48703;51.248;-0.546;2022-10-03T10:38:20;102033;;;12.81;85.79
62632;BME280;48703;51.248;-0.546;2022-10-03T10:39:05;102035;;;12.88;85.94
62632;BME280;48703;51.248;-0.546;2022-10-03T10:44:32;102034;;;12.94;85.26
62632;BME280;48703;51.248;-0.546;2022-10-03T10:45:09;102034;;;12.99;85.20
62632;BME280;48703;51.248;-0.546;2022-10-03T10:49:09;102033;;;13.03;84.88
62632;BME280;48703;51.248;-0.546;2022-10-03T10:50:11;102032;;;13.08;84.96
62632;BME280;48703;51.248;-0.546;2022-10-03T10:54:16;102029;;;13.14;85.23
62632;BME280;48703;51.248;-0.546;2022-10-03T10:56:25;102026;;;13.22;84.91
62632;BME280;48703;51.248;-0.546;2022-10-03T11:00:34;102025;;;13.30;85.11
62632;BME280;48703;51.248;-0.546;2022-10-03T11:02:22;102020;;;13.36;84.64
62632;BME280;48703;51.248;-0.546;2022-10-03T11:10:27;102008;;;13.47;84.07
62632;BME280;48703;51.248;-0.546;2022-10-03T11:11:17;102008;;;13.55;83.66
62632;BME280;48703;51.248;-0.546;2022-10-03T11:15:17;102010;;;13.63;83.39
62632;BME280;48703;51.248;-0.546;2022-10-03T11:17:20;102009;;;13.71;83.66
62632;BME280;48703;51.248;-0.546;2022-10-03T11:20:32;102011;;;13.76;82.71
62632;BME280;48703;51.248;-0.546;2022-10-03T11:23:32;102008;;;13.83;82.71
62632;BME280;48703;51.248;-0.546;2022-10-03T11:26:32;102006;;;13.85;81.73
62632;BME280;48703;51.248;-0.546;2022-10-03T11:31:38;102001;;;13.91;81.69
62632;BME280;48703;51.248;-0.546;2022-10-03T11:34:37;102003;;;13.94;81.79
62632;BME280;48703;51.248;-0.546;2022-10-03T11:37:29;101999;;;13.96;81.45
62632;BME280;48703;51.248;-0.546;2022-10-03T11:40:30;101997;;;13.99;80.76
62632;BME280;48703;51.248;-0.546;2022-10-03T11:43:37;101999;;;14.06;80.71
62632;BME280;48703;51.248;-0.546;2022-10-03T11:46:38;102003;;;14.15;80.72
62632;BME280;48703;51.248;-0.546;2022-10-03T11:49:38;102003;;;14.24;80.18
62632;BME280;48703;51.248;-0.546;2022-10-03T11:52:37;101997;;;14.34;79.43
62632;BME280;48703;51.248;-0.546;2022-10-03T11:55:37;101991;;;14.45;79.62
62632;BME280;48703;51.248;-0.546;2022-10-03T11:58:44;101991;;;14.59;79.32
62632;BME280;48703;51.248;-0.546;2022-10-03T12:01:44;101990;;;14.69;78.57
62632;BME280;48703;51.248;-0.546;2022-10-03T12:04:46;101990;;;14.74;78.08
62632;BME280;48703;51.248;-0.546;2022-10-03T12:07:45;101985;;;14.79;77.85
62632;BME280;48703;51.248;-0.546;2022-10-03T12:10:49;101983;;;14.81;77.93
62632;BME280;48703;51.248;-0.546;2022-10-03T12:13:55;101981;;;14.82;77.37
62632;BME280;48703;51.248;-0.546;2022-10-03T12:16:54;101977;;;14.83;77.60
62632;BME280;48703;51.248;-0.546;2022-10-03T12:19:55;101973;;;14.84;77.73
62632;BME280;48703;51.248;-0.546;2022-10-03T12:22:54;101967;;;14.85;77.83
62632;BME280;48703;51.248;-0.546;2022-10-03T12:25:55;101962;;;14.87;76.75
62632;BME280;48703;51.248;-0.546;2022-10-03T12:28:57;101961;;;14.91;77.67
62632;BME280;48703;51.248;-0.546;2022-10-03T12:32:04;101958;;;14.95;77.36
62632;BME280;48703;51.248;-0.546;2022-10-03T12:35:04;101953;;;15.00;77.15
62632;BME280;48703;51.248;-0.546;2022-10-03T12:38:06;101951;;;15.04;77.26
62632;BME280;48703;51.248;-0.546;2022-10-03T12:41:12;101949;;;15.07;76.82
62632;BME280;48703;51.248;-0.546;2022-10-03T12:44:11;101946;;;15.08;75.77
62632;BME280;48703;51.248;-0.546;2022-10-03T12:47:13;101940;;;15.13;76.60
62632;BME280;48703;51.248;-0.546;2022-10-03T12:50:14;101940;;;15.18;76.80
62632;BME280;48703;51.248;-0.546;2022-10-03T12:53:20;101937;;;15.23;76.35
62632;BME280;48703;51.248;-0.546;2022-10-03T12:56:16;101934;;;15.28;75.73
62632;BME280;48703;51.248;-0.546;2022-10-03T12:59:21;101933;;;15.32;76.34
62632;BME280;48703;51.248;-0.546;2022-10-03T13:02:21;101931;;;15.39;76.55
62632;BME280;48703;51.248;-0.546;2022-10-03T13:05:23;101927;;;15.45;75.59
62632;BME280;48703;51.248;-0.546;2022-10-03T13:08:26;101924;;;15.50;75.62
62632;BME280;48703;51.248;-0.546;2022-10-03T13:11:27;101919;;;15.55;75.62
62632;BME280;48703;51.248;-0.546;2022-10-03T13:14:29;101916;;;15.59;74.90
62632;BME280;48703;51.248;-0.546;2022-10-03T13:17:27;101918;;;15.63;74.92
62632;BME280;48703;51.248;-0.546;2022-10-03T13:20:31;101919;;;15.67;74.13
62632;BME280;48703;51.248;-0.546;2022-10-03T13:23:33;101912;;;15.70;72.63
62632;BME280;48703;51.248;-0.546;2022-10-03T13:26:37;101908;;;15.74;73.15
62632;BME280;48703;51.248;-0.546;2022-10-03T13:29:37;101903;;;15.76;72.44
62632;BME280;48703;51.248;-0.546;2022-10-03T13:32:37;101893;;;15.78;71.34
62632;BME280;48703;51.248;-0.546;2022-10-03T13:35:38;101887;;;15.82;72.48
62632;BME280;48703;51.248;-0.546;2022-10-03T13:38:42;101884;;;15.88;72.19
62632;BME280;48703;51.248;-0.546;2022-10-03T13:41:56;101884;;;15.92;71.47
62632;BME280;48703;51.248;-0.546;2022-10-03T13:44:45;101878;;;15.95;71.07
62632;BME280;48703;51.248;-0.546;2022-10-03T13:47:47;101874;;;15.98;70.81
62632;BME280;48703;51.248;-0.546;2022-10-03T13:50:48;101874;;;16.01;70.03
62632;BME280;48703;51.248;-0.546;2022-10-03T13:53:52;101868;;;16.01;69.49
62632;BME280;48703;51.248;-0.546;2022-10-03T13:56:53;101864;;;16.04;70.43
62632;BME280;48703;51.248;-0.546;2022-10-03T13:59:55;101862;;;16.06;70.01
62632;BME280;48703;51.248;-0.546;2022-10-03T14:02:59;101856;;;16.10;69.39
62632;BME280;48703;51.248;-0.546;2022-10-03T14:06:06;101860;;;16.14;70.24
62632;BME280;48703;51.248;-0.546;2022-10-03T14:09:02;101857;;;16.16;69.96
62632;BME280;48703;51.248;-0.546;2022-10-03T14:12:03;101856;;;16.17;69.36
62632;BME280;48703;51.248;-0.546;2022-10-03T14:15:06;101855;;;16.17;69.58
62632;BME280;48703;51.248;-0.546;2022-10-03T14:18:07;101852;;;16.16;69.75
62632;BME280;48703;51.248;-0.546;2022-10-03T14:21:26;101847;;;16.17;69.74
62632;BME280;48703;51.248;-0.546;2022-10-03T14:24:12;101848;;;16.15;69.93
62632;BME280;48703;51.248;-0.546;2022-10-03T14:27:15;101846;;;16.15;70.59
62632;BME280;48703;51.248;-0.546;2022-10-03T14:30:12;101842;;;16.15;70.18
62632;BME280;48703;51.248;-0.546;2022-10-03T14:33:16;101837;;;16.15;70.22
62632;BME280;48703;51.248;-0.546;2022-10-03T14:36:19;101834;;;16.14;69.66
62632;BME280;48703;51.248;-0.546;2022-10-03T14:39:21;101831;;;16.11;68.79
62632;BME280;48703;51.248;-0.546;2022-10-03T14:42:25;101830;;;16.11;69.07
62632;BME280;48703;51.248;-0.546;2022-10-03T14:45:22;101831;;;16.12;69.78
62632;BME280;48703;51.248;-0.546;2022-10-03T14:48:24;101833;;;16.14;69.28
62632;BME280;48703;51.248;-0.546;2022-10-03T14:51:25;101831;;;16.16;69.39
62632;BME280;48703;51.248;-0.546;2022-10-03T14:54:27;101828;;;16.19;70.02
62632;BME280;48703;51.248;-0.546;2022-10-03T14:57:30;101823;;;16.22;69.91
62632;BME280;48703;51.248;-0.546;2022-10-03T15:00:33;101820;;;16.23;69.81
62632;BME280;48703;51.248;-0.546;2022-10-03T15:03:33;101814;;;16.25;69.93
62632;BME280;48703;51.248;-0.546;2022-10-03T15:06:47;101812;;;16.27;70.05
62632;BME280;48703;51.248;-0.546;2022-10-03T15:09:40;101806;;;16.28;68.98
62632;BME280;48703;51.248;-0.546;2022-10-03T15:12:39;101805;;;16.28;69.44
62632;BME280;48703;51.248;-0.546;2022-10-03T15:15:40;101800;;;16.29;69.85
62632;BME280;48703;51.248;-0.546;2022-10-03T15:18:43;101797;;;16.33;70.49
62632;BME280;48703;51.248;-0.546;2022-10-03T15:21:44;101795;;;16.36;69.70
62632;BME280;48703;51.248;-0.546;2022-10-03T15:24:46;101794;;;16.38;70.31
62632;BME280;48703;51.248;-0.546;2022-10-03T15:27:50;101791;;;16.43;70.63
62632;BME280;48703;51.248;-0.546;2022-10-03T15:30:50;101789;;;16.46;70.50
62632;BME280;48703;51.248;-0.546;2022-10-03T15:33:51;101786;;;16.47;70.77
62632;BME280;48703;51.248;-0.546;2022-10-03T15:36:54;101782;;;16.46;69.09
62632;BME280;48703;51.248;-0.546;2022-10-03T15:39:59;101781;;;16.43;69.20
62632;BME280;48703;51.248;-0.546;2022-10-03T15:43:02;101778;;;16.41;68.61
62632;BME280;48703;51.248;-0.546;2022-10-03T15:45:59;101772;;;16.39;69.05
62632;BME280;48703;51.248;-0.546;2022-10-03T15:49:01;101770;;;16.37;69.06
62632;BME280;48703;51.248;-0.546;2022-10-03T15:52:07;101767;;;16.33;69.43
62632;BME280;48703;51.248;-0.546;2022-10-03T15:55:04;101764;;;16.30;69.64
62632;BME280;48703;51.248;-0.546;2022-10-03T15:58:11;101760;;;16.27;69.55
62632;BME280;48703;51.248;-0.546;2022-10-03T16:01:08;101757;;;16.22;69.40
62632;BME280;48703;51.248;-0.546;2022-10-03T16:04:14;101754;;;16.14;69.38
62632;BME280;48703;51.248;-0.546;2022-10-03T16:07:13;101748;;;16.07;69.64
62632;BME280;48703;51.248;-0.546;2022-10-03T16:10:16;101749;;;16.02;69.93
62632;BME280;48703;51.248;-0.546;2022-10-03T16:13:20;101746;;;15.97;70.15
62632;BME280;48703;51.248;-0.546;2022-10-03T16:16:17;101743;;;15.90;70.57
62632;BME280;48703;51.248;-0.546;2022-10-03T16:19:30;101741;;;15.84;70.89
62632;BME280;48703;51.248;-0.546;2022-10-03T16:22:21;101736;;;15.78;71.00
62632;BME280;48703;51.248;-0.546;2022-10-03T16:25:23;101737;;;15.72;71.36
62632;BME280;48703;51.248;-0.546;2022-10-03T16:28:27;101734;;;15.66;71.59
62632;BME280;48703;51.248;-0.546;2022-10-03T16:31:27;101733;;;15.60;71.65
62632;BME280;48703;51.248;-0.546;2022-10-03T16:34:28;101735;;;15.54;72.67
62632;BME280;48703;51.248;-0.546;2022-10-03T16:37:30;101734;;;15.49;72.91
62632;BME280;48703;51.248;-0.546;2022-10-03T16:40:32;101726;;;15.43;72.98
62632;BME280;48703;51.248;-0.546;2022-10-03T16:43:33;101722;;;15.38;73.00